sensor_id;sensor_type;location;lat;lon;timestamp;temperature;humidity
24992;DHT22;13014;48.356;10.884;2022-09-20T00:00:06;8.30;99.90
24992;DHT22;13014;48.356;10.884;2022-09-20T00:00:37;8.40;99.90
24992;DHT22;13014;48.356;10.884;2022-09-20T00:01:09;8.40;99.90
24992;DHT22;13014;48.356;10.884;2022-09-20T00:01:40;8.40;99.90
24992;DHT22;13014;48.356;10.884;2022-09-20T00:02:11;8.40;99.90
24992;DHT22;13014;48.356;10.884;2022-09-20T00:02:41;8.40;99.90
24992;DHT22;13014;48.356;10.884;2022-09-20T00:03:12;8.40;99.90
24992;DHT22;13014;48.356;10.884;2022-09-20T00:03:44;8.30;99.90
24992;DHT22;13014;48.356;10.884;2022-09-20T00:04:15;8.40;99.90
24992;DHT22;13014;48.356;10.884;2022-09-20T00:04:49;8.30;99.90
24992;DHT22;13014;48.356;10.884;2022-09-20T00:05:19;8.30;99.90
24992;DHT22;13014;48.356;10.884;2022-09-20T00:05:50;8.40;99.90
24992;DHT22;13014;48.356;10.884;2022-09-20T00:06:21;8.30;99.90
24992;DHT22;13014;48.356;10.884;2022-09-20T00:06:52;8.40;99.90
24992;DHT22;13014;48.356;10.884;2022-09-20T00:07:23;8.30;99.90
24992;DHT22;13014;48.356;10.884;2022-09-20T00:07:53;8.40;99.90
24992;DHT22;13014;48.356;10.884;2022-09-20T00:08:24;8.30;99.90
24992;DHT22;13014;48.356;10.884;2022-09-20T00:08:54;8.30;99.90
24992;DHT22;13014;48.356;10.884;2022-09-20T00:09:25;8.40;99.90
24992;DHT22;13014;48.356;10.884;2022-09-20T00:09:56;8.30;99.90
24992;DHT22;13014;48.356;10.884;2022-09-20T00:10:27;8.30;99.90
24992;DHT22;13014;48.356;10.884;2022-09-20T00:10:59;8.30;99.90
24992;DHT22;13014;48.356;10.884;2022-09-20T00:11:32;8.30;99.90
24992;DHT22;13014;48.356;10.884;2022-09-20T00:12:03;8.30;99.90
24992;DHT22;13014;48.356;10.884;2022-09-20T00:12:34;8.30;99.90
24992;DHT22;13014;48.356;10.884;2022-09-20T00:13:05;8.30;99.90
24992;DHT22;13014;48.356;10.884;2022-09-20T00:13:37;8.30;99.90
24992;DHT22;13014;48.356;10.884;2022-09-20T00:14:08;8.30;99.90
24992;DHT22;13014;48.356;10.884;2022-09-20T00:14:39;8.30;99.90
24992;DHT22;13014;48.356;10.884;2022-09-20T00:15:09;8.30;99.90
24992;DHT22;13014;48.356;10.884;2022-09-20T00:15:41;8.30;99.90
24992;DHT22;13014;48.356;10.884;2022-09-20T00:16:13;8.30;99.90
24992;DHT22;13014;48.356;10.884;2022-09-20T00:16:44;8.30;99.90
24992;DHT22;13014;48.356;10.884;2022-09-20T00:17:15;8.30;99.90
24992;DHT22;13014;48.356;10.884;2022-09-20T00:17:45;8.30;99.90
24992;DHT22;13014;48.356;10.884;2022-09-20T00:18:16;8.30;99.90
24992;DHT22;13014;48.356;10.884;2022-09-20T00:18:47;8.30;99.90
24992;DHT22;13014;48.356;10.884;2022-09-20T00:19:19;8.30;99.90
24992;DHT22;13014;48.356;10.884;2022-09-20T00:19:50;8.30;99.90
24992;DHT22;13014;48.356;10.884;2022-09-20T00:20:21;8.30;99.90
24992;DHT22;13014;48.356;10.884;2022-09-20T00:20:51;8.30;99.90
24992;DHT22;13014;48.356;10.884;2022-09-20T00:21:27;8.30;99.90
24992;DHT22;13014;48.356;10.884;2022-09-20T00:21:57;8.30;99.90
24992;DHT22;13014;48.356;10.884;2022-09-20T00:22:28;8.30;99.90
24992;DHT22;13014;48.356;10.884;2022-09-20T00:22:58;8.30;99.90
24992;DHT22;13014;48.356;10.884;2022-09-20T00:23:29;8.30;99.90
24992;DHT22;13014;48.356;10.884;2022-09-20T00:24:00;8.30;99.90
24992;DHT22;13014;48.356;10.884;2022-09-20T00:24:31;8.30;99.90
24992;DHT22;13014;48.356;10.884;2022-09-20T00:25:02;8.30;99.90
24992;DHT22;13014;48.356;10.884;2022-09-20T00:25:32;8.30;99.90
24992;DHT22;13014;48.356;10.884;2022-09-20T00:26:03;8.30;99.90
24992;DHT22;13014;48.356;10.884;2022-09-20T00:26:34;8.30;99.90
24992;DHT22;13014;48.356;10.884;2022-09-20T00:27:04;8.30;99.90
24992;DHT22;13014;48.356;10.884;2022-09-20T00:27:35;8.30;99.90
24992;DHT22;13014;48.356;10.884;2022-09-20T00:28:06;8.30;99.90
24992;DHT22;13014;48.356;10.884;2022-09-20T00:28:36;8.30;99.90
24992;DHT22;13014;48.356;10.884;2022-09-20T00:29:07;8.30;99.90
24992;DHT22;13014;48.356;10.884;2022-09-20T00:29:38;8.30;99.90
24992;DHT22;13014;48.356;10.884;2022-09-20T00:30:08;8.20;99.90
24992;DHT22;13014;48.356;10.884;2022-09-20T00:30:39;8.20;99.90
24992;DHT22;13014;48.356;10.884;2022-09-20T00:31:10;8.20;99.90
24992;DHT22;13014;48.356;10.884;2022-09-20T00:31:40;8.30;99.90
24992;DHT22;13014;48.356;10.884;2022-09-20T00:32:12;8.20;99.90
24992;DHT22;13014;48.356;10.884;2022-09-20T00:32:42;8.20;99.90
24992;DHT22;13014;48.356;10.884;2022-09-20T00:33:13;8.20;99.90
24992;DHT22;13014;48.356;10.884;2022-09-20T00:33:43;8.20;99.90
24992;DHT22;13014;48.356;10.884;2022-09-20T00:34:32;8.20;99.90
24992;DHT22;13014;48.356;10.884;2022-09-20T00:35:21;8.20;99.90
24992;DHT22;13014;48.356;10.884;2022-09-20T00:35:52;8.20;99.90
24992;DHT22;13014;48.356;10.884;2022-09-20T00:36:23;8.20;99.90
24992;DHT22;13014;48.356;10.884;2022-09-20T00:36:53;8.20;99.90
24992;DHT22;13014;48.356;10.884;2022-09-20T00:37:24;8.20;99.90
24992;DHT22;13014;48.356;10.884;2022-09-20T00:37:55;8.20;99.90
24992;DHT22;13014;48.356;10.884;2022-09-20T00:38:25;8.20;99.90
24992;DHT22;13014;48.356;10.884;2022-09-20T00:38:57;8.20;99.90
24992;DHT22;13014;48.356;10.884;2022-09-20T00:39:28;8.20;99.90
24992;DHT22;13014;48.356;10.884;2022-09-20T00:39:59;8.10;99.90
24992;DHT22;13014;48.356;10.884;2022-09-20T00:40:29;8.10;99.90
24992;DHT22;13014;48.356;10.884;2022-09-20T00:41:00;8.20;99.90
24992;DHT22;13014;48.356;10.884;2022-09-20T00:41:31;8.10;99.90
24992;DHT22;13014;48.356;10.884;2022-09-20T00:42:02;8.10;99.90
24992;DHT22;13014;48.356;10.884;2022-09-20T00:42:32;8.10;99.90
24992;DHT22;13014;48.356;10.884;2022-09-20T00:43:03;8.20;99.90
24992;DHT22;13014;48.356;10.884;2022-09-20T00:43:38;8.20;99.90
24992;DHT22;13014;48.356;10.884;2022-09-20T00:45:02;8.10;99.90
24992;DHT22;13014;48.356;10.884;2022-09-20T00:45:33;8.20;99.90
24992;DHT22;13014;48.356;10.884;2022-09-20T00:46:04;8.10;99.90
24992;DHT22;13014;48.356;10.884;2022-09-20T00:47:07;8.10;99.90
24992;DHT22;13014;48.356;10.884;2022-09-20T00:47:41;8.10;99.90
24992;DHT22;13014;48.356;10.884;2022-09-20T00:48:13;8.10;99.90
24992;DHT22;13014;48.356;10.884;2022-09-20T00:48:45;8.10;99.90
24992;DHT22;13014;48.356;10.884;2022-09-20T00:49:20;8.10;99.90
24992;DHT22;13014;48.356;10.884;2022-09-20T00:49:52;8.10;99.90
24992;DHT22;13014;48.356;10.884;2022-09-20T00:51:08;8.10;99.90
24992;DHT22;13014;48.356;10.884;2022-09-20T00:51:42;8.10;99.90
24992;DHT22;13014;48.356;10.884;2022-09-20T00:52:14;8.10;99.90
24992;DHT22;13014;48.356;10.884;2022-09-20T00:52:46;8.10;99.90
24992;DHT22;13014;48.356;10.884;2022-09-20T00:53:22;8.10;99.90
24992;DHT22;13014;48.356;10.884;2022-09-20T00:53:56;8.10;99.90
24992;DHT22;13014;48.356;10.884;2022-09-20T00:54:28;8.10;99.90
24992;DHT22;13014;48.356;10.884;2022-09-20T00:54:59;8.10;99.90
24992;DHT22;13014;48.356;10.884;2022-09-20T00:55:32;8.10;99.90
24992;DHT22;13014;48.356;10.884;2022-09-20T00:56:09;8.10;99.90
24992;DHT22;13014;48.356;10.884;2022-09-20T00:56:40;8.10;99.90
24992;DHT22;13014;48.356;10.884;2022-09-20T00:57:13;8.00;99.90
24992;DHT22;13014;48.356;10.884;2022-09-20T00:57:43;8.10;99.90
24992;DHT22;13014;48.356;10.884;2022-09-20T00:58:15;8.00;99.90
24992;DHT22;13014;48.356;10.884;2022-09-20T00:58:49;8.00;99.90
24992;DHT22;13014;48.356;10.884;2022-09-20T00:59:57;8.00;99.90
24992;DHT22;13014;48.356;10.884;2022-09-20T01:00:27;8.00;99.90
24992;DHT22;13014;48.356;10.884;2022-09-20T01:00:58;8.00;99.90
24992;DHT22;13014;48.356;10.884;2022-09-20T01:01:29;8.00;99.90
24992;DHT22;13014;48.356;10.884;2022-09-20T01:02:20;8.00;99.90
24992;DHT22;13014;48.356;10.884;2022-09-20T01:02:53;8.00;99.90
24992;DHT22;13014;48.356;10.884;2022-09-20T01:03:26;7.90;99.90
24992;DHT22;13014;48.356;10.884;2022-09-20T01:03:57;8.00;99.90
24992;DHT22;13014;48.356;10.884;2022-09-20T01:04:28;7.90;99.90
24992;DHT22;13014;48.356;10.884;2022-09-20T01:04:59;7.90;99.90
24992;DHT22;13014;48.356;10.884;2022-09-20T01:05:29;7.90;99.90
24992;DHT22;13014;48.356;10.884;2022-09-20T01:06:01;7.90;99.90
24992;DHT22;13014;48.356;10.884;2022-09-20T01:06:33;7.90;99.90
24992;DHT22;13014;48.356;10.884;2022-09-20T01:07:04;7.90;99.90
24992;DHT22;13014;48.356;10.884;2022-09-20T01:07:35;7.90;99.90
24992;DHT22;13014;48.356;10.884;2022-09-20T01:08:06;7.90;99.90
24992;DHT22;13014;48.356;10.884;2022-09-20T01:08:37;7.90;99.90
24992;DHT22;13014;48.356;10.884;2022-09-20T01:09:08;7.90;99.90
24992;DHT22;13014;48.356;10.884;2022-09-20T01:09:39;7.80;99.90
24992;DHT22;13014;48.356;10.884;2022-09-20T01:10:09;7.80;99.90
24992;DHT22;13014;48.356;10.884;2022-09-20T01:10:40;7.80;99.90
24992;DHT22;13014;48.356;10.884;2022-09-20T01:11:10;7.80;99.90
24992;DHT22;13014;48.356;10.884;2022-09-20T01:11:41;7.80;99.90
24992;DHT22;13014;48.356;10.884;2022-09-20T01:12:13;7.80;99.90
24992;DHT22;13014;48.356;10.884;2022-09-20T01:12:45;7.80;99.90
24992;DHT22;13014;48.356;10.884;2022-09-20T01:13:16;7.80;99.90
24992;DHT22;13014;48.356;10.884;2022-09-20T01:13:47;7.70;99.90
24992;DHT22;13014;48.356;10.884;2022-09-20T01:14:17;7.70;99.90
24992;DHT22;13014;48.356;10.884;2022-09-20T01:14:49;7.70;99.90
24992;DHT22;13014;48.356;10.884;2022-09-20T01:15:20;7.70;99.90
24992;DHT22;13014;48.356;10.884;2022-09-20T01:15:52;7.70;99.90
24992;DHT22;13014;48.356;10.884;2022-09-20T01:16:23;7.70;99.90
24992;DHT22;13014;48.356;10.884;2022-09-20T01:16:55;7.70;99.90
24992;DHT22;13014;48.356;10.884;2022-09-20T01:17:27;7.70;99.90
24992;DHT22;13014;48.356;10.884;2022-09-20T01:17:59;7.60;99.90
24992;DHT22;13014;48.356;10.884;2022-09-20T01:18:31;7.70;99.90
24992;DHT22;13014;48.356;10.884;2022-09-20T01:19:05;7.70;99.90
24992;DHT22;13014;48.356;10.884;2022-09-20T01:19:43;7.70;99.90
24992;DHT22;13014;48.356;10.884;2022-09-20T01:20:47;7.60;99.90
24992;DHT22;13014;48.356;10.884;2022-09-20T01:21:18;7.60;99.90
24992;DHT22;13014;48.356;10.884;2022-09-20T01:21:49;7.60;99.90
24992;DHT22;13014;48.356;10.884;2022-09-20T01:24:27;7.60;99.90
24992;DHT22;13014;48.356;10.884;2022-09-20T01:25:05;7.50;99.90
24992;DHT22;13014;48.356;10.884;2022-09-20T01:25:53;7.60;99.90
24992;DHT22;13014;48.356;10.884;2022-09-20T01:26:35;7.60;99.90
24992;DHT22;13014;48.356;10.884;2022-09-20T01:27:56;7.50;99.90
24992;DHT22;13014;48.356;10.884;2022-09-20T01:28:27;7.50;99.90
24992;DHT22;13014;48.356;10.884;2022-09-20T01:29:51;7.40;99.90
24992;DHT22;13014;48.356;10.884;2022-09-20T01:30:30;7.40;99.90
24992;DHT22;13014;48.356;10.884;2022-09-20T01:31:39;7.30;99.90
24992;DHT22;13014;48.356;10.884;2022-09-20T01:32:15;7.30;99.90
24992;DHT22;13014;48.356;10.884;2022-09-20T01:34:23;7.30;99.90
24992;DHT22;13014;48.356;10.884;2022-09-20T01:34:58;7.30;99.90
24992;DHT22;13014;48.356;10.884;2022-09-20T01:35:29;7.30;99.90
24992;DHT22;13014;48.356;10.884;2022-09-20T01:36:03;7.30;99.90
24992;DHT22;13014;48.356;10.884;2022-09-20T01:40:32;7.20;99.90
24992;DHT22;13014;48.356;10.884;2022-09-20T01:40:34;7.20;99.90
24992;DHT22;13014;48.356;10.884;2022-09-20T01:41:42;7.20;99.90
24992;DHT22;13014;48.356;10.884;2022-09-20T01:42:15;7.20;99.90
24992;DHT22;13014;48.356;10.884;2022-09-20T01:42:49;7.20;99.90
24992;DHT22;13014;48.356;10.884;2022-09-20T01:45:52;7.20;99.90
24992;DHT22;13014;48.356;10.884;2022-09-20T01:46:28;7.20;99.90
24992;DHT22;13014;48.356;10.884;2022-09-20T01:47:20;7.20;99.90
24992;DHT22;13014;48.356;10.884;2022-09-20T01:48:32;7.20;99.90
24992;DHT22;13014;48.356;10.884;2022-09-20T01:49:54;7.10;99.90
24992;DHT22;13014;48.356;10.884;2022-09-20T01:50:45;7.10;99.90
24992;DHT22;13014;48.356;10.884;2022-09-20T01:51:35;7.10;99.90
24992;DHT22;13014;48.356;10.884;2022-09-20T02:00:37;7.20;99.90
24992;DHT22;13014;48.356;10.884;2022-09-20T02:03:07;7.20;99.90
24992;DHT22;13014;48.356;10.884;2022-09-20T02:04:58;7.20;99.90
24992;DHT22;13014;48.356;10.884;2022-09-20T02:07:38;7.30;99.90
24992;DHT22;13014;48.356;10.884;2022-09-20T02:09:07;7.30;99.90
24992;DHT22;13014;48.356;10.884;2022-09-20T02:09:45;7.30;99.90
24992;DHT22;13014;48.356;10.884;2022-09-20T02:11:14;7.30;99.90
24992;DHT22;13014;48.356;10.884;2022-09-20T02:12:05;7.30;99.90
24992;DHT22;13014;48.356;10.884;2022-09-20T02:12:49;7.40;99.90
24992;DHT22;13014;48.356;10.884;2022-09-20T02:14:19;7.40;99.90
24992;DHT22;13014;48.356;10.884;2022-09-20T02:15:34;7.40;99.90
24992;DHT22;13014;48.356;10.884;2022-09-20T02:16:47;7.40;99.90
24992;DHT22;13014;48.356;10.884;2022-09-20T02:17:23;7.40;99.90
24992;DHT22;13014;48.356;10.884;2022-09-20T02:18:08;7.40;99.90
24992;DHT22;13014;48.356;10.884;2022-09-20T02:18:46;7.40;99.90
24992;DHT22;13014;48.356;10.884;2022-09-20T02:31:00;7.50;99.90
24992;DHT22;13014;48.356;10.884;2022-09-20T02:31:42;7.60;99.90
24992;DHT22;13014;48.356;10.884;2022-09-20T02:33:30;7.60;99.90
24992;DHT22;13014;48.356;10.884;2022-09-20T02:35:40;7.60;99.90
24992;DHT22;13014;48.356;10.884;2022-09-20T02:36:17;7.50;99.90
24992;DHT22;13014;48.356;10.884;2022-09-20T02:38:49;7.60;99.90
24992;DHT22;13014;48.356;10.884;2022-09-20T02:39:27;7.60;99.90
24992;DHT22;13014;48.356;10.884;2022-09-20T02:40:15;7.50;99.90
24992;DHT22;13014;48.356;10.884;2022-09-20T02:40:54;7.50;99.90
24992;DHT22;13014;48.356;10.884;2022-09-20T02:41:36;7.60;99.90
24992;DHT22;13014;48.356;10.884;2022-09-20T02:46:17;7.60;99.90
24992;DHT22;13014;48.356;10.884;2022-09-20T02:47:43;7.50;99.90
24992;DHT22;13014;48.356;10.884;2022-09-20T02:48:14;7.50;99.90
24992;DHT22;13014;48.356;10.884;2022-09-20T02:49:35;7.50;99.90
24992;DHT22;13014;48.356;10.884;2022-09-20T02:51:01;7.50;99.90
24992;DHT22;13014;48.356;10.884;2022-09-20T02:51:39;7.50;99.90
24992;DHT22;13014;48.356;10.884;2022-09-20T02:52:25;7.50;99.90
24992;DHT22;13014;48.356;10.884;2022-09-20T02:53:43;7.50;99.90
24992;DHT22;13014;48.356;10.884;2022-09-20T02:55:48;7.50;99.90
24992;DHT22;13014;48.356;10.884;2022-09-20T02:56:23;7.50;99.90
24992;DHT22;13014;48.356;10.884;2022-09-20T02:57:04;7.50;99.90
24992;DHT22;13014;48.356;10.884;2022-09-20T02:57:52;7.50;99.90
24992;DHT22;13014;48.356;10.884;2022-09-20T02:58:34;7.50;99.90
24992;DHT22;13014;48.356;10.884;2022-09-20T03:00:08;7.50;99.90
24992;DHT22;13014;48.356;10.884;2022-09-20T03:00:10;7.50;99.90
24992;DHT22;13014;48.356;10.884;2022-09-20T03:00:47;7.50;99.90
24992;DHT22;13014;48.356;10.884;2022-09-20T03:02:39;7.50;99.90
24992;DHT22;13014;48.356;10.884;2022-09-20T03:05:19;7.50;99.90
24992;DHT22;13014;48.356;10.884;2022-09-20T03:06:00;7.40;99.90
24992;DHT22;13014;48.356;10.884;2022-09-20T03:08:48;7.40;99.90
24992;DHT22;13014;48.356;10.884;2022-09-20T03:09:33;7.40;99.90
24992;DHT22;13014;48.356;10.884;2022-09-20T03:10:16;7.40;99.90
24992;DHT22;13014;48.356;10.884;2022-09-20T03:13:06;7.50;99.90
24992;DHT22;13014;48.356;10.884;2022-09-20T03:13:42;7.40;99.90
24992;DHT22;13014;48.356;10.884;2022-09-20T03:16:12;7.50;99.90
24992;DHT22;13014;48.356;10.884;2022-09-20T03:17:40;7.50;99.90
24992;DHT22;13014;48.356;10.884;2022-09-20T03:18:15;7.50;99.90
24992;DHT22;13014;48.356;10.884;2022-09-20T03:20:03;7.50;99.90
24992;DHT22;13014;48.356;10.884;2022-09-20T03:22:00;7.50;99.90
24992;DHT22;13014;48.356;10.884;2022-09-20T03:28:16;7.50;99.90
24992;DHT22;13014;48.356;10.884;2022-09-20T03:28:25;7.50;99.90
24992;DHT22;13014;48.356;10.884;2022-09-20T03:29:04;7.50;99.90
24992;DHT22;13014;48.356;10.884;2022-09-20T03:34:19;7.60;99.90
24992;DHT22;13014;48.356;10.884;2022-09-20T03:37:01;7.60;99.90
24992;DHT22;13014;48.356;10.884;2022-09-20T03:38:22;7.60;99.90
24992;DHT22;13014;48.356;10.884;2022-09-20T03:41:10;7.50;99.90
24992;DHT22;13014;48.356;10.884;2022-09-20T03:41:59;7.50;99.90
24992;DHT22;13014;48.356;10.884;2022-09-20T03:42:32;7.50;99.90
24992;DHT22;13014;48.356;10.884;2022-09-20T03:46:23;7.50;99.90
24992;DHT22;13014;48.356;10.884;2022-09-20T03:47:00;7.50;99.90
24992;DHT22;13014;48.356;10.884;2022-09-20T03:47:47;7.50;99.90
24992;DHT22;13014;48.356;10.884;2022-09-20T03:50:50;7.50;99.90
24992;DHT22;13014;48.356;10.884;2022-09-20T03:53:00;7.50;99.90
24992;DHT22;13014;48.356;10.884;2022-09-20T03:54:33;7.50;99.90
24992;DHT22;13014;48.356;10.884;2022-09-20T03:57:02;7.50;99.90
24992;DHT22;13014;48.356;10.884;2022-09-20T03:57:38;7.50;99.90
24992;DHT22;13014;48.356;10.884;2022-09-20T03:58:19;7.50;99.90
24992;DHT22;13014;48.356;10.884;2022-09-20T03:59:52;7.50;99.90
24992;DHT22;13014;48.356;10.884;2022-09-20T04:05:06;7.40;99.90
24992;DHT22;13014;48.356;10.884;2022-09-20T04:09:38;7.40;99.90
24992;DHT22;13014;48.356;10.884;2022-09-20T04:11:36;7.40;99.90
24992;DHT22;13014;48.356;10.884;2022-09-20T04:12:31;7.40;99.90
24992;DHT22;13014;48.356;10.884;2022-09-20T04:13:19;7.40;99.90
24992;DHT22;13014;48.356;10.884;2022-09-20T04:14:49;7.40;99.90
24992;DHT22;13014;48.356;10.884;2022-09-20T04:17:41;7.40;99.90
24992;DHT22;13014;48.356;10.884;2022-09-20T04:18:32;7.40;99.90
24992;DHT22;13014;48.356;10.884;2022-09-20T04:20:35;7.40;99.90
24992;DHT22;13014;48.356;10.884;2022-09-20T04:22:20;7.40;99.90
24992;DHT22;13014;48.356;10.884;2022-09-20T04:22:54;7.40;99.90
24992;DHT22;13014;48.356;10.884;2022-09-20T04:23:33;7.40;99.90
24992;DHT22;13014;48.356;10.884;2022-09-20T04:25:16;7.40;99.90
24992;DHT22;13014;48.356;10.884;2022-09-20T04:25:47;7.50;99.90
24992;DHT22;13014;48.356;10.884;2022-09-20T04:26:22;7.40;99.90
24992;DHT22;13014;48.356;10.884;2022-09-20T04:26:56;7.40;99.90
24992;DHT22;13014;48.356;10.884;2022-09-20T04:28:01;7.40;99.90
24992;DHT22;13014;48.356;10.884;2022-09-20T04:29:40;7.50;99.90
24992;DHT22;13014;48.356;10.884;2022-09-20T04:30:18;7.50;99.90
24992;DHT22;13014;48.356;10.884;2022-09-20T04:30:50;7.50;99.90
24992;DHT22;13014;48.356;10.884;2022-09-20T04:33:03;7.50;99.90
24992;DHT22;13014;48.356;10.884;2022-09-20T04:33:37;7.50;99.90
24992;DHT22;13014;48.356;10.884;2022-09-20T04:34:12;7.50;99.90
24992;DHT22;13014;48.356;10.884;2022-09-20T04:34:45;7.50;99.90
24992;DHT22;13014;48.356;10.884;2022-09-20T04:35:44;7.50;99.90
24992;DHT22;13014;48.356;10.884;2022-09-20T04:37:27;7.50;99.90
24992;DHT22;13014;48.356;10.884;2022-09-20T04:38:02;7.50;99.90
24992;DHT22;13014;48.356;10.884;2022-09-20T04:38:36;7.50;99.90
24992;DHT22;13014;48.356;10.884;2022-09-20T04:39:47;7.50;99.90
24992;DHT22;13014;48.356;10.884;2022-09-20T04:40:22;7.50;99.90
24992;DHT22;13014;48.356;10.884;2022-09-20T04:41:04;7.50;99.90
24992;DHT22;13014;48.356;10.884;2022-09-20T04:42:33;7.50;99.90
24992;DHT22;13014;48.356;10.884;2022-09-20T04:45:05;7.50;99.90
24992;DHT22;13014;48.356;10.884;2022-09-20T04:46:59;7.50;99.90
24992;DHT22;13014;48.356;10.884;2022-09-20T04:48:28;7.50;99.90
24992;DHT22;13014;48.356;10.884;2022-09-20T04:49:25;7.50;99.90
24992;DHT22;13014;48.356;10.884;2022-09-20T04:52:37;7.50;99.90
24992;DHT22;13014;48.356;10.884;2022-09-20T04:53:31;7.50;99.90
24992;DHT22;13014;48.356;10.884;2022-09-20T04:55:47;7.50;99.90
24992;DHT22;13014;48.356;10.884;2022-09-20T04:56:56;7.50;99.90
24992;DHT22;13014;48.356;10.884;2022-09-20T04:58:46;7.50;99.90
24992;DHT22;13014;48.356;10.884;2022-09-20T04:59:22;7.50;99.90
24992;DHT22;13014;48.356;10.884;2022-09-20T05:00:44;7.50;99.90
24992;DHT22;13014;48.356;10.884;2022-09-20T05:01:27;7.50;99.90
24992;DHT22;13014;48.356;10.884;2022-09-20T05:02:19;7.50;99.90
24992;DHT22;13014;48.356;10.884;2022-09-20T05:09:36;7.60;99.90
24992;DHT22;13014;48.356;10.884;2022-09-20T05:22:16;7.60;99.90
24992;DHT22;13014;48.356;10.884;2022-09-20T05:26:06;7.60;99.90
24992;DHT22;13014;48.356;10.884;2022-09-20T05:27:38;7.70;99.90
24992;DHT22;13014;48.356;10.884;2022-09-20T05:29:17;7.70;99.90
24992;DHT22;13014;48.356;10.884;2022-09-20T05:30:25;7.70;99.90
24992;DHT22;13014;48.356;10.884;2022-09-20T05:30:46;7.70;99.90
24992;DHT22;13014;48.356;10.884;2022-09-20T05:31:29;7.70;99.90
24992;DHT22;13014;48.356;10.884;2022-09-20T05:33:22;7.80;99.90
24992;DHT22;13014;48.356;10.884;2022-09-20T05:34:37;7.80;99.90
24992;DHT22;13014;48.356;10.884;2022-09-20T05:34:51;7.80;99.90
24992;DHT22;13014;48.356;10.884;2022-09-20T05:35:37;7.80;99.90
24992;DHT22;13014;48.356;10.884;2022-09-20T05:36:22;7.80;99.90
24992;DHT22;13014;48.356;10.884;2022-09-20T05:38:29;7.80;99.90
24992;DHT22;13014;48.356;10.884;2022-09-20T05:39:16;7.90;99.90
24992;DHT22;13014;48.356;10.884;2022-09-20T05:39:52;7.90;99.90
24992;DHT22;13014;48.356;10.884;2022-09-20T05:41:44;7.90;99.90
24992;DHT22;13014;48.356;10.884;2022-09-20T05:43:40;8.00;99.90
24992;DHT22;13014;48.356;10.884;2022-09-20T05:44:44;8.00;99.90
24992;DHT22;13014;48.356;10.884;2022-09-20T05:47:48;8.00;99.90
24992;DHT22;13014;48.356;10.884;2022-09-20T05:48:38;8.10;99.90
24992;DHT22;13014;48.356;10.884;2022-09-20T05:50:35;8.00;99.90
24992;DHT22;13014;48.356;10.884;2022-09-20T05:52:31;8.10;99.90
24992;DHT22;13014;48.356;10.884;2022-09-20T05:55:13;8.10;99.90
24992;DHT22;13014;48.356;10.884;2022-09-20T06:00:37;8.30;99.90
24992;DHT22;13014;48.356;10.884;2022-09-20T06:03:49;8.20;99.90
24992;DHT22;13014;48.356;10.884;2022-09-20T06:04:35;8.20;99.90
24992;DHT22;13014;48.356;10.884;2022-09-20T06:07:11;8.30;99.90
24992;DHT22;13014;48.356;10.884;2022-09-20T06:08:02;8.30;99.90
24992;DHT22;13014;48.356;10.884;2022-09-20T06:08:50;8.30;99.90
24992;DHT22;13014;48.356;10.884;2022-09-20T06:14:59;8.50;99.90
24992;DHT22;13014;48.356;10.884;2022-09-20T06:15:39;8.50;99.90
24992;DHT22;13014;48.356;10.884;2022-09-20T06:17:24;8.60;99.90
24992;DHT22;13014;48.356;10.884;2022-09-20T06:18:41;8.60;99.90
24992;DHT22;13014;48.356;10.884;2022-09-20T06:20:45;8.60;99.90
24992;DHT22;13014;48.356;10.884;2022-09-20T06:21:29;8.70;99.90
24992;DHT22;13014;48.356;10.884;2022-09-20T06:22:13;8.70;99.90
24992;DHT22;13014;48.356;10.884;2022-09-20T06:22:46;8.70;99.90
24992;DHT22;13014;48.356;10.884;2022-09-20T06:23:18;8.70;99.90
24992;DHT22;13014;48.356;10.884;2022-09-20T06:23:51;8.70;99.90
24992;DHT22;13014;48.356;10.884;2022-09-20T06:25:00;8.70;99.90
24992;DHT22;13014;48.356;10.884;2022-09-20T06:25:40;8.70;99.90
24992;DHT22;13014;48.356;10.884;2022-09-20T06:26:14;8.60;99.90
24992;DHT22;13014;48.356;10.884;2022-09-20T06:26:46;8.60;99.90
24992;DHT22;13014;48.356;10.884;2022-09-20T06:27:24;8.70;99.90
24992;DHT22;13014;48.356;10.884;2022-09-20T06:28:46;8.60;99.90
24992;DHT22;13014;48.356;10.884;2022-09-20T06:29:21;8.50;99.90
24992;DHT22;13014;48.356;10.884;2022-09-20T06:29:55;8.50;99.90
24992;DHT22;13014;48.356;10.884;2022-09-20T06:30:38;8.50;99.90
24992;DHT22;13014;48.356;10.884;2022-09-20T06:31:09;8.50;99.90
24992;DHT22;13014;48.356;10.884;2022-09-20T06:31:40;8.50;99.90
24992;DHT22;13014;48.356;10.884;2022-09-20T06:32:14;8.50;99.90
24992;DHT22;13014;48.356;10.884;2022-09-20T06:32:55;8.50;99.90
24992;DHT22;13014;48.356;10.884;2022-09-20T06:33:26;8.50;99.90
24992;DHT22;13014;48.356;10.884;2022-09-20T06:34:03;8.50;99.90
24992;DHT22;13014;48.356;10.884;2022-09-20T06:34:34;8.50;99.90
24992;DHT22;13014;48.356;10.884;2022-09-20T06:35:05;8.50;99.90
24992;DHT22;13014;48.356;10.884;2022-09-20T06:35:37;8.50;99.90
24992;DHT22;13014;48.356;10.884;2022-09-20T06:36:16;8.50;99.90
24992;DHT22;13014;48.356;10.884;2022-09-20T06:39:58;8.60;99.90
24992;DHT22;13014;48.356;10.884;2022-09-20T06:40:50;8.60;99.90
24992;DHT22;13014;48.356;10.884;2022-09-20T06:41:40;8.70;99.90
24992;DHT22;13014;48.356;10.884;2022-09-20T06:42:11;8.60;99.90
24992;DHT22;13014;48.356;10.884;2022-09-20T06:42:41;8.70;99.90
24992;DHT22;13014;48.356;10.884;2022-09-20T06:43:13;8.70;99.90
24992;DHT22;13014;48.356;10.884;2022-09-20T06:43:44;8.70;99.90
24992;DHT22;13014;48.356;10.884;2022-09-20T06:44:14;8.70;99.90
24992;DHT22;13014;48.356;10.884;2022-09-20T06:44:45;8.70;99.90
24992;DHT22;13014;48.356;10.884;2022-09-20T06:45:16;8.70;99.90
24992;DHT22;13014;48.356;10.884;2022-09-20T06:45:46;8.70;99.90
24992;DHT22;13014;48.356;10.884;2022-09-20T06:46:17;8.70;99.90
24992;DHT22;13014;48.356;10.884;2022-09-20T06:46:48;8.70;99.90
24992;DHT22;13014;48.356;10.884;2022-09-20T06:47:19;8.70;99.90
24992;DHT22;13014;48.356;10.884;2022-09-20T06:47:49;8.80;99.90
24992;DHT22;13014;48.356;10.884;2022-09-20T06:48:20;8.80;99.90
24992;DHT22;13014;48.356;10.884;2022-09-20T06:48:50;8.80;99.90
24992;DHT22;13014;48.356;10.884;2022-09-20T06:49:21;8.80;99.90
24992;DHT22;13014;48.356;10.884;2022-09-20T06:49:51;8.80;99.90
24992;DHT22;13014;48.356;10.884;2022-09-20T06:50:22;8.80;99.90
24992;DHT22;13014;48.356;10.884;2022-09-20T06:50:53;8.80;99.90
24992;DHT22;13014;48.356;10.884;2022-09-20T06:51:24;8.90;99.90
24992;DHT22;13014;48.356;10.884;2022-09-20T06:51:55;8.90;99.90
24992;DHT22;13014;48.356;10.884;2022-09-20T06:52:26;8.90;99.90
24992;DHT22;13014;48.356;10.884;2022-09-20T06:52:57;8.90;99.90
24992;DHT22;13014;48.356;10.884;2022-09-20T06:53:31;8.90;99.90
24992;DHT22;13014;48.356;10.884;2022-09-20T06:54:02;9.00;99.90